sensor_id;sensor_type;location;lat;lon;timestamp;temperature;humidity
52125;DHT22;38119;52.710;6.398;2022-07-21T00:00:25;21.10;99.90
52125;DHT22;38119;52.710;6.398;2022-07-21T00:02:52;21.20;99.90
52125;DHT22;38119;52.710;6.398;2022-07-21T00:05:18;21.20;99.90
52125;DHT22;38119;52.710;6.398;2022-07-21T00:07:44;21.10;99.90
52125;DHT22;38119;52.710;6.398;2022-07-21T00:10:10;21.10;99.90
52125;DHT22;38119;52.710;6.398;2022-07-21T00:12:37;21.10;99.90
52125;DHT22;38119;52.710;6.398;2022-07-21T00:15:04;21.10;99.90
52125;DHT22;38119;52.710;6.398;2022-07-21T00:17:30;21.10;99.90
52125;DHT22;38119;52.710;6.398;2022-07-21T00:19:55;21.10;99.90
52125;DHT22;38119;52.710;6.398;2022-07-21T00:22:22;21.10;99.90
52125;DHT22;38119;52.710;6.398;2022-07-21T00:24:48;21.10;99.90
52125;DHT22;38119;52.710;6.398;2022-07-21T00:27:14;21.10;99.90
52125;DHT22;38119;52.710;6.398;2022-07-21T00:29:40;21.10;99.90
52125;DHT22;38119;52.710;6.398;2022-07-21T00:32:06;21.10;99.90
52125;DHT22;38119;52.710;6.398;2022-07-21T00:34:32;21.10;99.90
52125;DHT22;38119;52.710;6.398;2022-07-21T00:36:58;21.10;99.90
52125;DHT22;38119;52.710;6.398;2022-07-21T00:39:24;21.10;99.90
52125;DHT22;38119;52.710;6.398;2022-07-21T00:41:52;21.10;99.90
52125;DHT22;38119;52.710;6.398;2022-07-21T00:44:22;21.10;99.90
52125;DHT22;38119;52.710;6.398;2022-07-21T00:46:48;21.10;99.90
52125;DHT22;38119;52.710;6.398;2022-07-21T00:49:14;21.10;99.90
52125;DHT22;38119;52.710;6.398;2022-07-21T00:51:40;21.10;99.90
52125;DHT22;38119;52.710;6.398;2022-07-21T00:54:06;21.10;99.90
52125;DHT22;38119;52.710;6.398;2022-07-21T00:56:32;21.00;99.90
52125;DHT22;38119;52.710;6.398;2022-07-21T00:58:58;21.10;99.90
52125;DHT22;38119;52.710;6.398;2022-07-21T01:01:24;21.00;99.90
52125;DHT22;38119;52.710;6.398;2022-07-21T01:03:49;21.00;99.90
52125;DHT22;38119;52.710;6.398;2022-07-21T01:06:15;21.00;99.90
52125;DHT22;38119;52.710;6.398;2022-07-21T01:08:41;21.00;99.90
52125;DHT22;38119;52.710;6.398;2022-07-21T01:11:06;21.00;99.90
52125;DHT22;38119;52.710;6.398;2022-07-21T01:13:32;21.00;99.90
52125;DHT22;38119;52.710;6.398;2022-07-21T01:15:58;21.00;99.90
52125;DHT22;38119;52.710;6.398;2022-07-21T01:18:24;21.00;99.90
52125;DHT22;38119;52.710;6.398;2022-07-21T01:20:54;21.00;99.90
52125;DHT22;38119;52.710;6.398;2022-07-21T01:23:21;21.00;99.90
52125;DHT22;38119;52.710;6.398;2022-07-21T01:25:48;21.00;99.90
52125;DHT22;38119;52.710;6.398;2022-07-21T01:28:14;21.00;99.90
52125;DHT22;38119;52.710;6.398;2022-07-21T01:30:40;21.00;99.90
52125;DHT22;38119;52.710;6.398;2022-07-21T01:33:05;20.90;99.90
52125;DHT22;38119;52.710;6.398;2022-07-21T01:35:31;20.90;99.90
52125;DHT22;38119;52.710;6.398;2022-07-21T01:37:58;20.80;99.90
52125;DHT22;38119;52.710;6.398;2022-07-21T01:40:26;20.80;99.90
52125;DHT22;38119;52.710;6.398;2022-07-21T01:43:11;20.80;99.90
52125;DHT22;38119;52.710;6.398;2022-07-21T01:45:37;20.80;99.90
52125;DHT22;38119;52.710;6.398;2022-07-21T01:48:05;20.70;99.90
52125;DHT22;38119;52.710;6.398;2022-07-21T01:50:31;20.70;99.90
52125;DHT22;38119;52.710;6.398;2022-07-21T01:52:58;20.80;99.90
52125;DHT22;38119;52.710;6.398;2022-07-21T01:55:25;20.80;99.90
52125;DHT22;38119;52.710;6.398;2022-07-21T01:57:51;20.80;99.90
52125;DHT22;38119;52.710;6.398;2022-07-21T02:00:18;20.80;99.90
52125;DHT22;38119;52.710;6.398;2022-07-21T02:02:45;20.80;99.90
52125;DHT22;38119;52.710;6.398;2022-07-21T02:05:11;20.80;99.90
52125;DHT22;38119;52.710;6.398;2022-07-21T02:07:36;20.80;99.90
52125;DHT22;38119;52.710;6.398;2022-07-21T02:10:02;20.80;99.90
52125;DHT22;38119;52.710;6.398;2022-07-21T02:12:29;20.80;99.90
52125;DHT22;38119;52.710;6.398;2022-07-21T02:14:55;20.80;99.90
52125;DHT22;38119;52.710;6.398;2022-07-21T02:17:20;20.90;99.90
52125;DHT22;38119;52.710;6.398;2022-07-21T02:19:46;20.80;99.90
52125;DHT22;38119;52.710;6.398;2022-07-21T02:22:12;20.80;99.90
52125;DHT22;38119;52.710;6.398;2022-07-21T02:24:37;20.80;99.90
52125;DHT22;38119;52.710;6.398;2022-07-21T02:27:05;20.80;99.90
52125;DHT22;38119;52.710;6.398;2022-07-21T02:29:31;20.80;99.90
52125;DHT22;38119;52.710;6.398;2022-07-21T02:31:56;20.80;99.90
52125;DHT22;38119;52.710;6.398;2022-07-21T02:34:22;20.70;99.90
52125;DHT22;38119;52.710;6.398;2022-07-21T02:36:48;20.70;99.90
52125;DHT22;38119;52.710;6.398;2022-07-21T02:39:13;20.70;99.90
52125;DHT22;38119;52.710;6.398;2022-07-21T02:41:39;20.70;99.90
52125;DHT22;38119;52.710;6.398;2022-07-21T02:44:05;20.70;99.90
52125;DHT22;38119;52.710;6.398;2022-07-21T02:46:31;20.60;99.90
52125;DHT22;38119;52.710;6.398;2022-07-21T02:48:57;20.60;99.90
52125;DHT22;38119;52.710;6.398;2022-07-21T02:51:24;20.60;99.90
52125;DHT22;38119;52.710;6.398;2022-07-21T02:53:49;20.60;99.90
52125;DHT22;38119;52.710;6.398;2022-07-21T02:56:15;20.50;99.90
52125;DHT22;38119;52.710;6.398;2022-07-21T02:58:41;20.40;99.90
52125;DHT22;38119;52.710;6.398;2022-07-21T03:01:07;20.40;99.90
52125;DHT22;38119;52.710;6.398;2022-07-21T03:03:34;20.40;99.90
52125;DHT22;38119;52.710;6.398;2022-07-21T03:06:01;20.40;99.90
52125;DHT22;38119;52.710;6.398;2022-07-21T03:08:28;20.30;99.90
52125;DHT22;38119;52.710;6.398;2022-07-21T03:10:54;20.30;99.90
52125;DHT22;38119;52.710;6.398;2022-07-21T03:13:20;20.30;99.90
52125;DHT22;38119;52.710;6.398;2022-07-21T03:15:46;20.30;99.90
52125;DHT22;38119;52.710;6.398;2022-07-21T03:18:12;20.30;99.90
52125;DHT22;38119;52.710;6.398;2022-07-21T03:20:39;20.30;99.90
52125;DHT22;38119;52.710;6.398;2022-07-21T03:23:06;20.20;99.90
52125;DHT22;38119;52.710;6.398;2022-07-21T03:25:31;20.20;99.90
52125;DHT22;38119;52.710;6.398;2022-07-21T03:27:57;20.30;99.90
52125;DHT22;38119;52.710;6.398;2022-07-21T03:30:24;20.20;99.90
52125;DHT22;38119;52.710;6.398;2022-07-21T03:32:50;20.20;99.90
52125;DHT22;38119;52.710;6.398;2022-07-21T03:35:17;20.20;99.90
52125;DHT22;38119;52.710;6.398;2022-07-21T03:40:12;20.10;99.90
52125;DHT22;38119;52.710;6.398;2022-07-21T03:42:39;20.10;99.90
52125;DHT22;38119;52.710;6.398;2022-07-21T03:45:06;20.10;99.90
52125;DHT22;38119;52.710;6.398;2022-07-21T03:47:32;20.10;99.90
52125;DHT22;38119;52.710;6.398;2022-07-21T03:49:57;20.10;99.90
52125;DHT22;38119;52.710;6.398;2022-07-21T03:52:23;20.10;99.90
52125;DHT22;38119;52.710;6.398;2022-07-21T03:54:49;20.10;99.90
52125;DHT22;38119;52.710;6.398;2022-07-21T03:57:15;20.10;99.90
52125;DHT22;38119;52.710;6.398;2022-07-21T03:59:40;20.10;99.90
52125;DHT22;38119;52.710;6.398;2022-07-21T04:02:06;20.10;99.90
52125;DHT22;38119;52.710;6.398;2022-07-21T04:04:31;20.10;99.90
52125;DHT22;38119;52.710;6.398;2022-07-21T04:07:02;20.10;99.90
52125;DHT22;38119;52.710;6.398;2022-07-21T04:09:31;20.10;99.90
52125;DHT22;38119;52.710;6.398;2022-07-21T04:11:57;20.00;99.90
52125;DHT22;38119;52.710;6.398;2022-07-21T04:14:22;20.00;99.90
52125;DHT22;38119;52.710;6.398;2022-07-21T04:16:48;20.10;99.90
52125;DHT22;38119;52.710;6.398;2022-07-21T04:19:13;20.10;99.90
52125;DHT22;38119;52.710;6.398;2022-07-21T04:21:39;20.00;99.90
52125;DHT22;38119;52.710;6.398;2022-07-21T04:24:05;20.10;99.90
52125;DHT22;38119;52.710;6.398;2022-07-21T04:26:30;20.10;99.90
52125;DHT22;38119;52.710;6.398;2022-07-21T04:28:56;20.10;99.90
52125;DHT22;38119;52.710;6.398;2022-07-21T04:31:22;20.10;99.90
52125;DHT22;38119;52.710;6.398;2022-07-21T04:33:47;20.10;99.90
52125;DHT22;38119;52.710;6.398;2022-07-21T04:36:13;20.20;99.90
52125;DHT22;38119;52.710;6.398;2022-07-21T04:38:39;20.10;99.90
52125;DHT22;38119;52.710;6.398;2022-07-21T04:41:05;20.20;99.90
52125;DHT22;38119;52.710;6.398;2022-07-21T04:43:31;20.20;99.90
52125;DHT22;38119;52.710;6.398;2022-07-21T04:45:56;20.20;99.90
52125;DHT22;38119;52.710;6.398;2022-07-21T04:48:22;20.10;99.90
52125;DHT22;38119;52.710;6.398;2022-07-21T04:50:48;20.10;99.90
52125;DHT22;38119;52.710;6.398;2022-07-21T04:53:14;20.10;99.90
52125;DHT22;38119;52.710;6.398;2022-07-21T04:55:40;20.10;99.90
52125;DHT22;38119;52.710;6.398;2022-07-21T04:58:06;20.20;99.90
52125;DHT22;38119;52.710;6.398;2022-07-21T05:00:32;20.20;99.90
52125;DHT22;38119;52.710;6.398;2022-07-21T05:02:58;20.20;99.90
52125;DHT22;38119;52.710;6.398;2022-07-21T05:05:24;20.10;99.90
52125;DHT22;38119;52.710;6.398;2022-07-21T05:07:51;20.20;99.90
52125;DHT22;38119;52.710;6.398;2022-07-21T05:10:17;20.20;99.90
52125;DHT22;38119;52.710;6.398;2022-07-21T05:12:43;20.20;99.90
52125;DHT22;38119;52.710;6.398;2022-07-21T05:15:10;20.20;99.90
52125;DHT22;38119;52.710;6.398;2022-07-21T05:17:37;20.20;99.90
52125;DHT22;38119;52.710;6.398;2022-07-21T05:20:04;20.20;99.90
52125;DHT22;38119;52.710;6.398;2022-07-21T05:22:30;20.20;99.90
52125;DHT22;38119;52.710;6.398;2022-07-21T05:24:56;20.20;99.90
52125;DHT22;38119;52.710;6.398;2022-07-21T05:27:21;20.20;99.90
52125;DHT22;38119;52.710;6.398;2022-07-21T05:29:47;20.20;99.90
52125;DHT22;38119;52.710;6.398;2022-07-21T05:32:12;20.20;99.90
52125;DHT22;38119;52.710;6.398;2022-07-21T05:34:42;20.10;99.90
52125;DHT22;38119;52.710;6.398;2022-07-21T05:37:10;20.10;99.90
52125;DHT22;38119;52.710;6.398;2022-07-21T05:39:36;20.10;99.90
52125;DHT22;38119;52.710;6.398;2022-07-21T05:42:04;20.10;99.90
52125;DHT22;38119;52.710;6.398;2022-07-21T05:44:30;20.10;99.90
52125;DHT22;38119;52.710;6.398;2022-07-21T05:46:56;20.00;99.90
52125;DHT22;38119;52.710;6.398;2022-07-21T05:49:22;20.10;99.90
52125;DHT22;38119;52.710;6.398;2022-07-21T05:51:47;20.10;99.90
52125;DHT22;38119;52.710;6.398;2022-07-21T05:54:13;20.00;99.90
52125;DHT22;38119;52.710;6.398;2022-07-21T05:56:40;20.00;99.90
52125;DHT22;38119;52.710;6.398;2022-07-21T05:59:08;20.00;99.90
52125;DHT22;38119;52.710;6.398;2022-07-21T06:01:34;20.00;99.90
52125;DHT22;38119;52.710;6.398;2022-07-21T06:03:59;20.00;99.90
52125;DHT22;38119;52.710;6.398;2022-07-21T06:06:25;20.00;99.90
52125;DHT22;38119;52.710;6.398;2022-07-21T06:08:50;20.00;99.90
52125;DHT22;38119;52.710;6.398;2022-07-21T06:11:19;20.00;99.90
52125;DHT22;38119;52.710;6.398;2022-07-21T06:13:45;20.10;99.90
52125;DHT22;38119;52.710;6.398;2022-07-21T06:16:12;20.10;99.90
52125;DHT22;38119;52.710;6.398;2022-07-21T06:18:39;20.10;99.90
52125;DHT22;38119;52.710;6.398;2022-07-21T06:21:05;20.10;99.90
52125;DHT22;38119;52.710;6.398;2022-07-21T06:23:31;20.10;99.90
52125;DHT22;38119;52.710;6.398;2022-07-21T06:25:56;20.10;99.90
52125;DHT22;38119;52.710;6.398;2022-07-21T06:28:22;20.00;99.90
52125;DHT22;38119;52.710;6.398;2022-07-21T06:30:48;20.00;99.90
52125;DHT22;38119;52.710;6.398;2022-07-21T06:33:15;20.10;99.90
52125;DHT22;38119;52.710;6.398;2022-07-21T06:35:42;20.10;99.90
52125;DHT22;38119;52.710;6.398;2022-07-21T06:38:08;20.20;99.90
52125;DHT22;38119;52.710;6.398;2022-07-21T06:40:34;20.30;99.90
52125;DHT22;38119;52.710;6.398;2022-07-21T06:43:00;20.30;99.90
52125;DHT22;38119;52.710;6.398;2022-07-21T06:45:29;20.40;99.90
52125;DHT22;38119;52.710;6.398;2022-07-21T06:48:05;20.40;99.90
52125;DHT22;38119;52.710;6.398;2022-07-21T06:50:32;20.40;99.90
52125;DHT22;38119;52.710;6.398;2022-07-21T06:52:58;20.40;99.90
52125;DHT22;38119;52.710;6.398;2022-07-21T06:55:23;20.40;99.90
52125;DHT22;38119;52.710;6.398;2022-07-21T06:57:49;20.40;99.90
52125;DHT22;38119;52.710;6.398;2022-07-21T07:00:16;20.40;99.90
52125;DHT22;38119;52.710;6.398;2022-07-21T07:02:41;20.40;99.90
52125;DHT22;38119;52.710;6.398;2022-07-21T07:05:08;20.40;99.90
52125;DHT22;38119;52.710;6.398;2022-07-21T07:07:34;20.40;99.90
52125;DHT22;38119;52.710;6.398;2022-07-21T07:10:00;20.50;99.90
52125;DHT22;38119;52.710;6.398;2022-07-21T07:12:28;20.50;99.90
52125;DHT22;38119;52.710;6.398;2022-07-21T07:14:54;20.50;99.90
52125;DHT22;38119;52.710;6.398;2022-07-21T07:17:20;20.60;99.90
52125;DHT22;38119;52.710;6.398;2022-07-21T07:19:49;20.60;99.90
52125;DHT22;38119;52.710;6.398;2022-07-21T07:22:15;20.70;99.90
52125;DHT22;38119;52.710;6.398;2022-07-21T07:24:41;20.70;99.90
52125;DHT22;38119;52.710;6.398;2022-07-21T07:27:07;20.70;99.90
52125;DHT22;38119;52.710;6.398;2022-07-21T07:29:33;20.70;99.90
52125;DHT22;38119;52.710;6.398;2022-07-21T07:31:59;20.70;99.90
52125;DHT22;38119;52.710;6.398;2022-07-21T07:34:25;20.60;99.90
52125;DHT22;38119;52.710;6.398;2022-07-21T07:36:53;20.70;99.90
52125;DHT22;38119;52.710;6.398;2022-07-21T07:39:19;20.70;99.90
52125;DHT22;38119;52.710;6.398;2022-07-21T07:41:44;20.70;99.90
52125;DHT22;38119;52.710;6.398;2022-07-21T07:44:11;20.80;99.90
52125;DHT22;38119;52.710;6.398;2022-07-21T07:46:39;20.80;99.90
52125;DHT22;38119;52.710;6.398;2022-07-21T07:49:05;21.00;99.90
52125;DHT22;38119;52.710;6.398;2022-07-21T07:51:31;21.00;99.90
52125;DHT22;38119;52.710;6.398;2022-07-21T07:53:56;21.10;99.90
52125;DHT22;38119;52.710;6.398;2022-07-21T07:56:24;21.20;99.90
52125;DHT22;38119;52.710;6.398;2022-07-21T07:58:50;21.20;99.90
52125;DHT22;38119;52.710;6.398;2022-07-21T08:01:15;21.10;99.90
52125;DHT22;38119;52.710;6.398;2022-07-21T08:03:41;21.10;99.90
52125;DHT22;38119;52.710;6.398;2022-07-21T08:06:07;21.10;99.90
52125;DHT22;38119;52.710;6.398;2022-07-21T08:08:33;21.10;99.90
52125;DHT22;38119;52.710;6.398;2022-07-21T08:11:01;21.20;99.90
52125;DHT22;38119;52.710;6.398;2022-07-21T08:13:29;21.30;99.90
52125;DHT22;38119;52.710;6.398;2022-07-21T08:15:55;21.40;99.90
52125;DHT22;38119;52.710;6.398;2022-07-21T08:18:21;21.50;99.90
52125;DHT22;38119;52.710;6.398;2022-07-21T08:20:47;21.60;99.90
52125;DHT22;38119;52.710;6.398;2022-07-21T08:23:14;21.70;99.90
52125;DHT22;38119;52.710;6.398;2022-07-21T08:25:43;21.80;99.90
52125;DHT22;38119;52.710;6.398;2022-07-21T08:28:10;21.90;99.90
52125;DHT22;38119;52.710;6.398;2022-07-21T08:30:36;22.00;99.90
52125;DHT22;38119;52.710;6.398;2022-07-21T08:33:02;22.10;99.90
52125;DHT22;38119;52.710;6.398;2022-07-21T08:35:28;22.00;99.90
52125;DHT22;38119;52.710;6.398;2022-07-21T08:37:56;22.00;99.90
52125;DHT22;38119;52.710;6.398;2022-07-21T08:40:26;22.00;99.90
52125;DHT22;38119;52.710;6.398;2022-07-21T08:42:53;22.00;99.90
52125;DHT22;38119;52.710;6.398;2022-07-21T08:45:20;22.10;99.90
52125;DHT22;38119;52.710;6.398;2022-07-21T08:47:51;22.20;99.90
52125;DHT22;38119;52.710;6.398;2022-07-21T08:50:17;22.40;99.90
52125;DHT22;38119;52.710;6.398;2022-07-21T08:52:43;22.70;99.90
52125;DHT22;38119;52.710;6.398;2022-07-21T08:55:08;22.80;99.90
52125;DHT22;38119;52.710;6.398;2022-07-21T08:57:38;22.80;99.90
52125;DHT22;38119;52.710;6.398;2022-07-21T09:00:07;22.80;99.90
52125;DHT22;38119;52.710;6.398;2022-07-21T09:02:34;22.60;99.90
52125;DHT22;38119;52.710;6.398;2022-07-21T09:05:07;22.40;99.90
52125;DHT22;38119;52.710;6.398;2022-07-21T09:07:51;22.20;99.90
52125;DHT22;38119;52.710;6.398;2022-07-21T09:10:24;22.00;99.90
52125;DHT22;38119;52.710;6.398;2022-07-21T09:12:58;21.80;99.90
52125;DHT22;38119;52.710;6.398;2022-07-21T09:15:28;21.70;99.90
52125;DHT22;38119;52.710;6.398;2022-07-21T09:18:13;21.50;99.90
52125;DHT22;38119;52.710;6.398;2022-07-21T09:20:51;21.50;99.90
52125;DHT22;38119;52.710;6.398;2022-07-21T09:23:20;21.40;99.90
52125;DHT22;38119;52.710;6.398;2022-07-21T09:25:51;21.40;99.90
52125;DHT22;38119;52.710;6.398;2022-07-21T09:28:23;21.40;99.90
52125;DHT22;38119;52.710;6.398;2022-07-21T09:30:57;21.40;99.90
52125;DHT22;38119;52.710;6.398;2022-07-21T09:33:27;21.40;99.90
52125;DHT22;38119;52.710;6.398;2022-07-21T09:36:01;21.50;99.90
52125;DHT22;38119;52.710;6.398;2022-07-21T09:38:29;21.60;99.90
52125;DHT22;38119;52.710;6.398;2022-07-21T09:40:56;21.70;99.90
52125;DHT22;38119;52.710;6.398;2022-07-21T09:43:55;21.90;99.90
52125;DHT22;38119;52.710;6.398;2022-07-21T09:46:27;22.20;99.90
52125;DHT22;38119;52.710;6.398;2022-07-21T09:48:56;22.50;99.90
52125;DHT22;38119;52.710;6.398;2022-07-21T09:51:27;22.60;99.90
52125;DHT22;38119;52.710;6.398;2022-07-21T09:56:28;22.50;99.90
52125;DHT22;38119;52.710;6.398;2022-07-21T09:58:55;22.40;99.90
52125;DHT22;38119;52.710;6.398;2022-07-21T10:01:21;22.20;99.90
52125;DHT22;38119;52.710;6.398;2022-07-21T10:03:49;22.10;99.90
52125;DHT22;38119;52.710;6.398;2022-07-21T10:06:17;21.90;99.90
52125;DHT22;38119;52.710;6.398;2022-07-21T10:08:43;21.80;99.90
52125;DHT22;38119;52.710;6.398;2022-07-21T10:11:10;21.60;99.90
52125;DHT22;38119;52.710;6.398;2022-07-21T10:13:38;21.60;99.90
52125;DHT22;38119;52.710;6.398;2022-07-21T10:16:10;21.50;99.90
52125;DHT22;38119;52.710;6.398;2022-07-21T10:18:45;21.40;99.90
52125;DHT22;38119;52.710;6.398;2022-07-21T10:21:29;21.40;99.90
52125;DHT22;38119;52.710;6.398;2022-07-21T10:23:55;21.40;99.90
52125;DHT22;38119;52.710;6.398;2022-07-21T10:26:22;21.30;99.90
52125;DHT22;38119;52.710;6.398;2022-07-21T10:28:49;21.20;99.90
52125;DHT22;38119;52.710;6.398;2022-07-21T10:31:24;21.00;99.90
52125;DHT22;38119;52.710;6.398;2022-07-21T10:33:52;21.00;99.90
52125;DHT22;38119;52.710;6.398;2022-07-21T10:39:17;20.70;99.90
52125;DHT22;38119;52.710;6.398;2022-07-21T10:41:54;20.70;99.90
52125;DHT22;38119;52.710;6.398;2022-07-21T10:47:15;20.70;99.90
52125;DHT22;38119;52.710;6.398;2022-07-21T10:50:01;20.60;99.90
52125;DHT22;38119;52.710;6.398;2022-07-21T11:02:46;20.90;99.90
52125;DHT22;38119;52.710;6.398;2022-07-21T11:05:12;21.00;99.90
52125;DHT22;38119;52.710;6.398;2022-07-21T11:08:10;21.00;99.90
52125;DHT22;38119;52.710;6.398;2022-07-21T11:10:44;21.00;99.90
52125;DHT22;38119;52.710;6.398;2022-07-21T11:13:11;21.00;99.90
52125;DHT22;38119;52.710;6.398;2022-07-21T11:15:47;21.10;99.90
52125;DHT22;38119;52.710;6.398;2022-07-21T11:18:20;21.10;99.90
52125;DHT22;38119;52.710;6.398;2022-07-21T11:21:15;21.10;99.90
52125;DHT22;38119;52.710;6.398;2022-07-21T11:23:47;21.10;99.90
52125;DHT22;38119;52.710;6.398;2022-07-21T11:26:16;21.10;99.90
52125;DHT22;38119;52.710;6.398;2022-07-21T11:28:45;21.10;99.90
52125;DHT22;38119;52.710;6.398;2022-07-21T11:31:15;21.00;99.90
52125;DHT22;38119;52.710;6.398;2022-07-21T11:33:44;20.90;99.90
52125;DHT22;38119;52.710;6.398;2022-07-21T11:36:26;20.90;99.90
52125;DHT22;38119;52.710;6.398;2022-07-21T11:39:06;20.80;99.90
52125;DHT22;38119;52.710;6.398;2022-07-21T11:41:36;20.70;99.90
52125;DHT22;38119;52.710;6.398;2022-07-21T11:44:03;20.70;99.90
52125;DHT22;38119;52.710;6.398;2022-07-21T11:46:48;20.70;99.90
52125;DHT22;38119;52.710;6.398;2022-07-21T11:49:15;20.70;99.90
52125;DHT22;38119;52.710;6.398;2022-07-21T11:51:53;20.70;99.90
52125;DHT22;38119;52.710;6.398;2022-07-21T11:54:29;20.70;99.90
52125;DHT22;38119;52.710;6.398;2022-07-21T11:56:57;20.60;99.90
52125;DHT22;38119;52.710;6.398;2022-07-21T11:59:23;20.70;99.90
52125;DHT22;38119;52.710;6.398;2022-07-21T12:01:59;20.70;99.90
52125;DHT22;38119;52.710;6.398;2022-07-21T12:07:14;20.70;99.90
52125;DHT22;38119;52.710;6.398;2022-07-21T12:09:44;20.60;99.90
52125;DHT22;38119;52.710;6.398;2022-07-21T12:12:13;20.60;99.90
52125;DHT22;38119;52.710;6.398;2022-07-21T12:14:49;20.60;99.90
52125;DHT22;38119;52.710;6.398;2022-07-21T12:17:38;20.60;99.90
52125;DHT22;38119;52.710;6.398;2022-07-21T12:20:08;20.60;99.90
52125;DHT22;38119;52.710;6.398;2022-07-21T12:22:53;20.60;99.90
52125;DHT22;38119;52.710;6.398;2022-07-21T12:25:39;20.60;99.90
52125;DHT22;38119;52.710;6.398;2022-07-21T12:28:07;20.50;99.90
52125;DHT22;38119;52.710;6.398;2022-07-21T12:30:47;20.60;99.90
52125;DHT22;38119;52.710;6.398;2022-07-21T12:33:18;20.60;99.90
52125;DHT22;38119;52.710;6.398;2022-07-21T12:36:04;20.60;99.90
52125;DHT22;38119;52.710;6.398;2022-07-21T12:38:47;20.70;99.90
52125;DHT22;38119;52.710;6.398;2022-07-21T12:41:18;20.70;99.90
52125;DHT22;38119;52.710;6.398;2022-07-21T12:43:55;20.70;99.90
52125;DHT22;38119;52.710;6.398;2022-07-21T12:46:28;20.70;99.90
52125;DHT22;38119;52.710;6.398;2022-07-21T12:49:05;20.70;99.90
52125;DHT22;38119;52.710;6.398;2022-07-21T12:51:31;20.70;99.90
52125;DHT22;38119;52.710;6.398;2022-07-21T12:53:57;20.70;99.90
52125;DHT22;38119;52.710;6.398;2022-07-21T12:56:25;20.60;99.90
52125;DHT22;38119;52.710;6.398;2022-07-21T12:58:53;20.60;99.90
52125;DHT22;38119;52.710;6.398;2022-07-21T13:01:20;20.60;99.90
52125;DHT22;38119;52.710;6.398;2022-07-21T13:03:46;20.60;99.90
52125;DHT22;38119;52.710;6.398;2022-07-21T13:06:13;20.60;99.90
52125;DHT22;38119;52.710;6.398;2022-07-21T13:08:43;20.60;99.90
52125;DHT22;38119;52.710;6.398;2022-07-21T13:11:11;20.50;99.90
52125;DHT22;38119;52.710;6.398;2022-07-21T13:13:37;20.60;99.90
52125;DHT22;38119;52.710;6.398;2022-07-21T13:16:04;20.60;99.90
52125;DHT22;38119;52.710;6.398;2022-07-21T13:18:30;20.60;99.90
52125;DHT22;38119;52.710;6.398;2022-07-21T13:20:55;20.70;99.90
52125;DHT22;38119;52.710;6.398;2022-07-21T13:23:21;20.80;99.90
52125;DHT22;38119;52.710;6.398;2022-07-21T13:25:47;20.70;99.90
52125;DHT22;38119;52.710;6.398;2022-07-21T13:28:17;20.80;99.90
52125;DHT22;38119;52.710;6.398;2022-07-21T13:30:44;20.80;99.90
52125;DHT22;38119;52.710;6.398;2022-07-21T13:33:13;20.90;99.90
52125;DHT22;38119;52.710;6.398;2022-07-21T13:35:42;21.00;99.90
52125;DHT22;38119;52.710;6.398;2022-07-21T13:38:08;21.00;99.90
52125;DHT22;38119;52.710;6.398;2022-07-21T13:40:34;21.00;99.90
52125;DHT22;38119;52.710;6.398;2022-07-21T13:42:59;21.00;99.90
52125;DHT22;38119;52.710;6.398;2022-07-21T13:45:25;21.00;99.90
52125;DHT22;38119;52.710;6.398;2022-07-21T13:47:51;21.00;99.90
52125;DHT22;38119;52.710;6.398;2022-07-21T13:50:18;20.90;99.90
52125;DHT22;38119;52.710;6.398;2022-07-21T13:52:44;20.90;99.90
52125;DHT22;38119;52.710;6.398;2022-07-21T13:55:10;20.90;99.90
52125;DHT22;38119;52.710;6.398;2022-07-21T13:57:36;20.90;99.90
52125;DHT22;38119;52.710;6.398;2022-07-21T14:00:06;20.90;99.90
52125;DHT22;38119;52.710;6.398;2022-07-21T14:02:35;21.00;99.90
52125;DHT22;38119;52.710;6.398;2022-07-21T14:05:00;21.10;99.90
52125;DHT22;38119;52.710;6.398;2022-07-21T14:07:26;21.10;99.90
52125;DHT22;38119;52.710;6.398;2022-07-21T14:09:52;21.10;99.90
52125;DHT22;38119;52.710;6.398;2022-07-21T14:12:17;21.10;99.90
52125;DHT22;38119;52.710;6.398;2022-07-21T14:14:44;21.00;99.90
52125;DHT22;38119;52.710;6.398;2022-07-21T14:17:13;21.00;99.90
52125;DHT22;38119;52.710;6.398;2022-07-21T14:19:38;21.00;99.90
52125;DHT22;38119;52.710;6.398;2022-07-21T14:22:04;20.90;99.90
52125;DHT22;38119;52.710;6.398;2022-07-21T14:24:33;20.90;99.90
52125;DHT22;38119;52.710;6.398;2022-07-21T14:27:18;20.90;99.90
52125;DHT22;38119;52.710;6.398;2022-07-21T14:29:44;20.90;99.90
52125;DHT22;38119;52.710;6.398;2022-07-21T14:32:09;20.80;99.90
52125;DHT22;38119;52.710;6.398;2022-07-21T14:34:35;20.80;99.90
52125;DHT22;38119;52.710;6.398;2022-07-21T14:37:01;20.80;99.90
52125;DHT22;38119;52.710;6.398;2022-07-21T14:39:26;20.80;99.90
52125;DHT22;38119;52.710;6.398;2022-07-21T14:41:52;20.70;99.90
52125;DHT22;38119;52.710;6.398;2022-07-21T14:44:18;20.80;99.90
52125;DHT22;38119;52.710;6.398;2022-07-21T14:46:43;20.80;99.90
52125;DHT22;38119;52.710;6.398;2022-07-21T14:49:09;20.90;99.90
52125;DHT22;38119;52.710;6.398;2022-07-21T14:51:35;20.90;99.90
52125;DHT22;38119;52.710;6.398;2022-07-21T14:54:02;20.90;99.90
52125;DHT22;38119;52.710;6.398;2022-07-21T14:56:28;20.90;99.90
52125;DHT22;38119;52.710;6.398;2022-07-21T14:58:54;21.00;99.90
52125;DHT22;38119;52.710;6.398;2022-07-21T15:01:24;21.00;99.90
52125;DHT22;38119;52.710;6.398;2022-07-21T15:03:50;21.00;99.90
52125;DHT22;38119;52.710;6.398;2022-07-21T15:06:15;21.10;99.90
52125;DHT22;38119;52.710;6.398;2022-07-21T15:08:41;21.10;99.90
52125;DHT22;38119;52.710;6.398;2022-07-21T15:11:06;21.10;99.90
52125;DHT22;38119;52.710;6.398;2022-07-21T15:13:32;21.00;99.90
52125;DHT22;38119;52.710;6.398;2022-07-21T15:15:58;21.00;99.90
52125;DHT22;38119;52.710;6.398;2022-07-21T15:18:24;21.00;99.90
52125;DHT22;38119;52.710;6.398;2022-07-21T15:20:50;20.90;99.90
52125;DHT22;38119;52.710;6.398;2022-07-21T15:23:15;20.90;99.90
52125;DHT22;38119;52.710;6.398;2022-07-21T15:25:41;20.90;99.90
52125;DHT22;38119;52.710;6.398;2022-07-21T15:28:07;20.80;99.90
52125;DHT22;38119;52.710;6.398;2022-07-21T15:30:33;20.80;99.90
52125;DHT22;38119;52.710;6.398;2022-07-21T15:32:59;20.80;99.90
52125;DHT22;38119;52.710;6.398;2022-07-21T15:35:25;20.80;99.90
52125;DHT22;38119;52.710;6.398;2022-07-21T15:37:51;20.80;99.90
52125;DHT22;38119;52.710;6.398;2022-07-21T15:40:17;20.90;99.90
52125;DHT22;38119;52.710;6.398;2022-07-21T15:42:45;20.90;99.90
52125;DHT22;38119;52.710;6.398;2022-07-21T15:45:11;20.90;99.90
52125;DHT22;38119;52.710;6.398;2022-07-21T15:47:38;20.90;99.90
52125;DHT22;38119;52.710;6.398;2022-07-21T15:50:04;20.90;99.90
52125;DHT22;38119;52.710;6.398;2022-07-21T15:52:32;21.00;99.90
52125;DHT22;38119;52.710;6.398;2022-07-21T15:54:58;20.90;99.90
52125;DHT22;38119;52.710;6.398;2022-07-21T15:57:25;20.90;99.90